Cheikh El Mokrani — C6WD5 — position and weather

sailwx.info

Track history (hours):
 
Tides and Currents Weather Stations Pressure Air Temp Water Temp Dewpoint Dewpoint Depression Visibility Wind Speed Wind Dir Waves Ship Positions

Cheikh El Mokrani

Last reported at 2016-Jun-28 14:06 UTC. Time now 2016-Jun-28 15:14 UTC.
Position N 37°00' E 006°57'.

Length 220 m; draft 9.7 m.

Type: Ship (hazmat cat D). MMSI: 309979000.

Date/timePositionNaut miles runAvg speedWind from/ knotsBaromVisibWave heightAir tempDewpointWater temp
2016-Jun-28 14:06N 37°00' E 006°57'39212.8
2016-Jun-27 07:32N 43°21' E 004°58'  
2016-Jun-24 22:31N 42°19' E 005°21'25 7.3
2016-Jun-24 19:04N 41°55' E 005°29'8 9.3
2016-Jun-24 18:15N 41°47' E 005°32'7 9.2
2016-Jun-24 17:27N 41°40' E 005°34'38 7.5
2016-Jun-24 12:23N 41°03' E 005°47'2111.0
2016-Jun-24 10:28N 40°43' E 005°54'1411.7
2016-Jun-24 09:14N 40°29' E 005°59'2011.6
2016-Jun-24 07:31N 40°09' E 006°06'18312.7
2016-Jun-23 17:09N 37°11' E 006°59'19 1.4
2016-Jun-23 03:33N 36°53' E 006°57'170 5.8
2016-Jun-21 22:10N 39°39' E 006°13'5016.4
2016-Jun-21 19:07N 40°28' E 005°57'916.8
2016-Jun-21 18:33N 40°37' E 005°54'1816.7
2016-Jun-21 17:28N 40°55' E 005°48'3316.7
2016-Jun-21 15:30N 41°27' E 005°37'1516.4
2016-Jun-21 14:33N 41°42' E 005°32'1616.2
2016-Jun-21 13:33N 41°57' E 005°27'6716.2
2016-Jun-21 09:27N 43°02' E 005°05'1415.4
2016-Jun-21 08:33N 43°15' E 005°00'10 9.9
2016-Jun-21 07:33N 43°24' E 004°54'4 0.1
2016-Jun-19 22:33N 43°27' E 004°51'3 3.3
2016-Jun-19 21:33N 43°24' E 004°53'7 6.6
2016-Jun-19 20:33N 43°19' E 004°59'8 7.5
2016-Jun-19 19:30N 43°12' E 005°03'  
Track history (hours):
 
Tides and Currents Weather Stations Pressure Air Temp Water Temp Dewpoint Dewpoint Depression Visibility Wind Speed Wind Dir Waves Ship Positions

Cheikh El Mokrani

Last reported at 2016-Jun-28 14:06 UTC. Time now 2016-Jun-28 15:14 UTC.
Position N 37°00' E 006°57'.

Length 220 m; draft 9.7 m.

Type: Ship (hazmat cat D). MMSI: 309979000.

Date/timePositionNaut miles runAvg speedWind from/ knotsBaromVisibWave heightAir tempDewpointWater temp
2016-Jun-28 14:06N 37°00' E 006°57'39212.8
2016-Jun-27 07:32N 43°21' E 004°58'  
2016-Jun-24 22:31N 42°19' E 005°21'25 7.3
2016-Jun-24 19:04N 41°55' E 005°29'8 9.3
2016-Jun-24 18:15N 41°47' E 005°32'7 9.2
2016-Jun-24 17:27N 41°40' E 005°34'38 7.5
2016-Jun-24 12:23N 41°03' E 005°47'2111.0
2016-Jun-24 10:28N 40°43' E 005°54'1411.7
2016-Jun-24 09:14N 40°29' E 005°59'2011.6
2016-Jun-24 07:31N 40°09' E 006°06'18312.7
2016-Jun-23 17:09N 37°11' E 006°59'19 1.4
2016-Jun-23 03:33N 36°53' E 006°57'170 5.8
2016-Jun-21 22:10N 39°39' E 006°13'5016.4
2016-Jun-21 19:07N 40°28' E 005°57'916.8
2016-Jun-21 18:33N 40°37' E 005°54'1816.7
2016-Jun-21 17:28N 40°55' E 005°48'3316.7
2016-Jun-21 15:30N 41°27' E 005°37'1516.4
2016-Jun-21 14:33N 41°42' E 005°32'1616.2
2016-Jun-21 13:33N 41°57' E 005°27'6716.2
2016-Jun-21 09:27N 43°02' E 005°05'1415.4
2016-Jun-21 08:33N 43°15' E 005°00'10 9.9
2016-Jun-21 07:33N 43°24' E 004°54'4 0.1
2016-Jun-19 22:33N 43°27' E 004°51'3 3.3
2016-Jun-19 21:33N 43°24' E 004°53'7 6.6
2016-Jun-19 20:33N 43°19' E 004°59'8 7.5
2016-Jun-19 19:30N 43°12' E 005°03'  

Dump ship's entire track history